D/T METAR WX W/SPE G/SPE TEMP DEWP FEEL
31/01/23 13:20 EGLC 311320Z AUTO 28014KT 9999 BKN023 11/06 Q1023 16.1mph 11°C 6°C 10.6°C
31/01/23 12:50 EGLC 311250Z AUTO 25012KT 9999 SCT020 BKN028 BKN034 11/07 Q1023 13.8mph 11°C 7°C 11.0°C
30/01/23 21:50 EGLC 302150Z AUTO 22005KT 9999 NCD 05/01 Q1028 5.8mph 5°C 1°C 3.1°C
30/01/23 12:50 EGLC 301250Z AUTO 30013KT 9999 NCD 09/01 Q1026 15.0mph 9°C 1°C 7.1°C
30/01/23 11:50 EGLC 301150Z AUTO 29013KT 9999 NCD 09/01 Q1025 15.0mph 9°C 1°C 7.1°C
30/01/23 10:50 EGLC 301050Z AUTO 27011KT 9999 FEW035 08/02 Q1025 12.7mph 8°C 2°C 6.4°C
30/01/23 10:20 EGLC 301020Z AUTO 28010KT 9999 FEW038 08/01 Q1025 11.5mph 8°C 1°C 6.1°C
30/01/23 08:20 EGLC 300820Z AUTO 28010KT 9999 SCT040 07/02 Q1024 11.5mph 7°C 2°C 5.4°C
30/01/23 06:50 EGLC 300650Z AUTO 29009KT 9999 FEW039 08/03 Q1023 10.4mph 8°C 3°C 6.7°C
09/01/23 06:20 EGLC 090620Z AUTO 25011KT 9999 NCD 06/04 Q0995 12.7mph 6°C 4°C 5.0°C
09/01/23 05:50 EGLC 090550Z AUTO 25012KT 9999 NCD 06/04 Q0995 13.8mph 6°C 4°C 5.0°C
09/01/23 05:20 EGLC 090520Z AUTO 25012KT 9999 NCD 06/04 Q0994 13.8mph 6°C 4°C 5.0°C
09/01/23 04:50 EGLC 090450Z AUTO 25011KT 9999 FEW015 06/04 Q0994 12.7mph 6°C 4°C 5.0°C
09/01/23 04:20 EGLC 090420Z AUTO 25012KT 9999 NCD 06/04 Q0993 13.8mph 6°C 4°C 5.0°C
09/01/23 03:50 EGLC 090350Z AUTO 25012KT 9999 FEW020 07/04 Q0993 13.8mph 7°C 4°C 6.0°C
09/01/23 03:20 EGLC 090320Z AUTO 25014KT 9999 FEW016 07/04 Q0992 16.1mph 7°C 4°C 6.0°C
09/01/23 02:50 EGLC 090250Z AUTO 26011KT 9999 BKN015 07/05 Q0992 12.7mph 7°C 5°C 6.3°C
09/01/23 02:20 EGLC 090220Z AUTO 26012KT 9999 BKN014 BKN034 07/05 Q0991 13.8mph 7°C 5°C 6.3°C
09/01/23 01:20 EGLC 090120Z AUTO 26011KT 9999 BKN012 BKN016 BKN034 07/05 Q0990 12.7mph 7°C 5°C 6.3°C
09/01/23 00:50 EGLC 090050Z AUTO 25010KT 9999 BKN012 BKN021 OVC040 07/06 Q0989 11.5mph 7°C 6°C 6.6°C
09/01/23 00:20 EGLC 090020Z AUTO 23004KT 9999 SCT017 BKN025 BKN042 07/05 Q0989 4.6mph 7°C 5°C 6.3°C
08/01/23 23:50 EGLC 082350Z AUTO 17004KT 120V210 9999 -RA SCT026/// BKN031/// //////TCU 07/05 Q0989 -RA 4.6mph 7°C 5°C 6.3°C
08/01/23 23:20 EGLC 082320Z AUTO 21007KT 150V230 9999 -RA FEW036/// SCT044/// //////TCU 07/05 Q0989 -RA 8.1mph 7°C 5°C 6.3°C
08/01/23 22:20 EGLC 082220Z AUTO 21008KT 170V240 9999 SCT049 07/04 Q0989 9.2mph 7°C 4°C 6.0°C
08/01/23 20:50 EGLC 082050Z AUTO 22007KT 180V250 9999 NCD 07/03 Q0990 8.1mph 7°C 3°C 5.7°C
08/01/23 19:50 EGLC 081950Z AUTO 22006G16KT 180V290 9999 NCD 06/04 Q0990 6.9mph 18.4mph 6°C 4°C 5.0°C
08/01/23 18:50 EGLC 081850Z AUTO 25009KT 200V280 9999 FEW024 07/04 Q0990 10.4mph 7°C 4°C 6.0°C
08/01/23 18:20 EGLC 081820Z AUTO 25013KT 9999 SCT017 07/04 Q0990 15.0mph 7°C 4°C 6.0°C
08/01/23 17:50 EGLC 081750Z AUTO 25017KT 9999 FEW018 SCT049 07/04 Q0990 19.6mph 7°C 4°C 6.0°C
08/01/23 17:20 EGLC 081720Z AUTO 21010KT 160V250 9999 -RA SCT020/// BKN027/// OVC044/// //////CB 07/05 Q0989 -RA 11.5mph 7°C 5°C 6.3°C
08/01/23 16:50 EGLC 081650Z AUTO 21010KT 170V240 9999 -RA SCT033 BKN040 BKN048 07/05 Q0989 -RA 11.5mph 7°C 5°C 6.3°C
08/01/23 16:20 EGLC 081620Z AUTO 20009KT 170V230 9999 SCT037 07/05 Q0990 10.4mph 7°C 5°C 6.3°C
08/01/23 15:20 EGLC 081520Z AUTO 23009KT 9999 -RA SCT030/// BKN037/// //////CB 08/05 Q0990 RERA -RA 10.4mph 8°C 5°C 7.3°C
08/01/23 14:50 EGLC 081450Z AUTO 22013KT 180V250 3600 RA SCT025/// BKN032/// //////CB 08/06 Q0990 RA 15.0mph 8°C 6°C 7.6°C
08/01/23 13:50 EGLC 081350Z 24012KT 5000 SHRA BKN017CB BKN027 BKN034 09/06 Q0991 RERA SHRA 13.8mph 9°C 6°C 8.6°C
08/01/23 13:20 EGLC 081320Z AUTO 21013G23KT 9999 BKN026/// BKN033/// //////CB 10/06 Q0991 15.0mph 26.5mph 10°C 6°C 9.6°C
08/01/23 12:20 EGLC 081220Z AUTO 19011KT 160V230 7000 BKN025/// BKN045/// //////CB 10/06 Q0992 12.7mph 10°C 6°C 9.6°C
08/01/23 11:50 EGLC 081150Z AUTO 20013KT 160V230 9999 SCT025/// BKN041/// //////CB 10/06 Q//// 15.0mph 10°C 6°C 9.6°C
08/01/23 11:20 EGLC 081120Z AUTO 20013G25KT 150V240 9999 SCT021/// BKN029/// BKN038/// //////CB 10/06 Q//// 15.0mph 28.8mph 10°C 6°C 9.6°C
08/01/23 10:50 EGLC 081050Z AUTO 20011KT 160V230 9999 SCT022/// BKN033/// BKN041/// //////CB 10/06 Q//// 12.7mph 10°C 6°C 9.6°C
08/01/23 10:20 EGLC 081020Z AUTO 20010G20KT 150V230 9999 SCT021 SCT039 09/06 Q//// 11.5mph 23.0mph 9°C 6°C 8.6°C
08/01/23 09:50 EGLC 080950Z AUTO 19007KT 150V220 9999 NCD 08/06 Q//// 8.1mph 8°C 6°C 7.6°C
08/01/23 09:20 EGLC 080920Z AUTO 20007KT 140V230 9999 NCD 08/06 Q//// 8.1mph 8°C 6°C 7.6°C
08/01/23 08:20 EGLC 080820Z AUTO 21008KT 180V250 9999 FEW035 08/05 Q//// 9.2mph 8°C 5°C 7.3°C
08/01/23 07:50 EGLC 080750Z AUTO 21012KT 170V240 9000 -RA SCT034/// BKN044/// //////CB 08/06 Q//// -RA 13.8mph 8°C 6°C 7.6°C
08/01/23 07:20 EGLC 080720Z AUTO 20010KT 180V250 9999 -RA FEW028 SCT043 08/06 Q//// -RA 11.5mph 8°C 6°C 7.6°C
08/01/23 06:50 EGLC 080650Z AUTO 19009KT 160V230 9999 -RA SCT045/// //////TCU 08/05 Q//// -RA 10.4mph 8°C 5°C 7.3°C
08/01/23 06:20 EGLC 080620Z AUTO 19007KT 9999 SCT044 07/05 Q//// 8.1mph 7°C 5°C 6.3°C
08/01/23 05:20 EGLC 080520Z AUTO 22008KT 190V260 9999 -RA FEW020/// BKN032/// BKN047/// //////CB 07/05 Q//// RERA -RA 9.2mph 7°C 5°C 6.3°C
08/01/23 04:50 EGLC 080450Z AUTO 22012G26KT 180V260 2300 +RA SCT020/// BKN030/// BKN042/// //////CB 08/05 Q//// +RA 13.8mph 29.9mph 8°C 5°C 7.3°C
08/01/23 04:20 EGLC 080420Z AUTO 21012KT 9999 //////CB 09/05 Q//// 13.8mph 9°C 5°C 8.3°C
08/01/23 03:20 EGLC 080320Z AUTO 21009KT 170V250 9999 -RA SCT035/// BKN045/// //////CB 09/06 Q//// -RA 10.4mph 9°C 6°C 8.6°C
08/01/23 02:50 EGLC 080250Z AUTO 20015G26KT 7000 -RA FEW028 SCT038 09/06 Q//// -RA 17.3mph 29.9mph 9°C 6°C 8.6°C
08/01/23 02:20 EGLC 080220Z AUTO 21011KT 170V230 9999 FEW025/// //////TCU 09/06 Q//// 12.7mph 9°C 6°C 8.6°C
08/01/23 01:50 EGLC 080150Z AUTO 20010KT 170V230 9999 SCT024 SCT043 09/06 Q//// 11.5mph 9°C 6°C 8.6°C
08/01/23 00:50 EGLC 080050Z AUTO 20010KT 160V240 9999 FEW041 09/05 Q//// 11.5mph 9°C 5°C 8.3°C
08/01/23 00:20 EGLC 080020Z AUTO 21009KT 180V250 9999 BKN034 09/05 Q//// 10.4mph 9°C 5°C 8.3°C
07/01/23 23:50 EGLC 072350Z AUTO 21010KT 170V240 9999 FEW042 09/05 Q//// 11.5mph 9°C 5°C 8.3°C
07/01/23 23:20 EGLC 072320Z AUTO 21011KT 180V250 9999 SCT034 09/05 Q//// 12.7mph 9°C 5°C 8.3°C
07/01/23 22:50 EGLC 072250Z AUTO 21011KT 170V230 9999 NCD 08/04 Q//// 12.7mph 8°C 4°C 7.0°C
07/01/23 21:50 EGLC 072150Z AUTO 21011KT 170V230 9999 NCD 08/04 Q//// 12.7mph 8°C 4°C 7.0°C
07/01/23 21:20 EGLC 072120Z AUTO 22010KT 180V250 9999 NCD 08/04 Q//// 11.5mph 8°C 4°C 7.0°C
07/01/23 20:20 EGLC 072020Z AUTO 23011KT 190V250 9999 NCD 08/05 Q//// 12.7mph 8°C 5°C 7.3°C
07/01/23 19:50 EGLC 071950Z AUTO 22012KT 9999 FEW037 08/05 Q//// 13.8mph 8°C 5°C 7.3°C
07/01/23 19:20 EGLC 071920Z AUTO 23013G23KT 9999 //////TCU 08/04 Q//// 15.0mph 26.5mph 8°C 4°C 7.0°C
07/01/23 18:50 EGLC 071850Z AUTO 23013KT 9999 NCD 08/04 Q//// 15.0mph 8°C 4°C 7.0°C
07/01/23 18:20 EGLC 071820Z AUTO 24021G31KT 9999 -RA SCT023/// BKN033/// BKN049/// //////CB 09/05 Q//// RERA -RA 24.2mph 35.7mph 9°C 5°C 8.3°C
07/01/23 17:50 EGLC 071750Z AUTO 23013G23KT 9999 SCT025/// SCT048/// //////CB 10/07 Q0996 15.0mph 26.5mph 10°C 7°C 10.0°C
07/01/23 17:20 EGLC 071720Z AUTO 21011G21KT 180V250 9999 -RA FEW023/// SCT037/// //////CB 10/08 Q0996 RERA -RA 12.7mph 24.2mph 10°C 8°C 10.4°C
07/01/23 16:50 EGLC 071650Z AUTO 24011KT 6000 -RA FEW026/// SCT038/// BKN047/// //////CB 11/08 Q0996 -RA 12.7mph 11°C 8°C 11.4°C
07/01/23 15:50 EGLC 071550Z AUTO 21011KT 170V240 9999 SCT022/// BKN043/// //////CB 11/09 Q0997 12.7mph 11°C 9°C 11.8°C
07/01/23 15:20 EGLC 071520Z AUTO 22013KT 9999 SCT019/// BKN024/// BKN029/// //////CB 12/08 Q0997 15.0mph 12°C 8°C 12.4°C
07/01/23 14:50 EGLC 071450Z AUTO 21014KT 180V240 9999 -RA BKN015 OVC023 12/09 Q0997 -RA 16.1mph 12°C 9°C 12.8°C
07/01/23 14:20 EGLC 071420Z AUTO 20014KT 140V240 9999 -RA BKN015/// OVC024/// //////TCU 11/08 Q0997 -RA 16.1mph 11°C 8°C 11.4°C
07/01/23 13:50 EGLC 071350Z AUTO 19012G25KT 150V220 9999 BKN014 OVC019 11/08 Q0997 13.8mph 28.8mph 11°C 8°C 11.4°C
07/01/23 12:50 EGLC 071250Z AUTO 20014G25KT 160V230 9999 BKN015 OVC020 11/08 Q0998 16.1mph 28.8mph 11°C 8°C 11.4°C
07/01/23 12:20 EGLC 071220Z AUTO 20015G26KT 160V240 9999 BKN014 OVC019 11/08 Q0999 17.3mph 29.9mph 11°C 8°C 11.4°C
07/01/23 11:50 EGLC 071150Z AUTO 20016G28KT 140V230 9999 OVC016 11/08 Q0999 18.4mph 32.2mph 11°C 8°C 11.4°C
07/01/23 11:20 EGLC 071120Z AUTO 20013G27KT 150V220 9999 BKN015 OVC021 11/08 Q1000 15.0mph 31.1mph 11°C 8°C 11.4°C
07/01/23 10:50 EGLC 071050Z AUTO 19012KT 150V220 9999 -RA BKN014 BKN019 OVC026 10/08 Q1000 -RA 13.8mph 10°C 8°C 10.4°C
07/01/23 10:20 EGLC 071020Z AUTO 18014G24KT 140V210 7000 -RA SCT014 BKN019 OVC024 10/08 Q1001 RERA -RA 16.1mph 27.6mph 10°C 8°C 10.4°C
07/01/23 09:50 EGLC 070950Z AUTO 18016KT 150V220 6000 -RA BKN016 BKN021 OVC031 10/08 Q1001 -RA 18.4mph 10°C 8°C 10.4°C
07/01/23 09:20 EGLC 070920Z AUTO 18015KT 140V220 9999 -RA BKN020 BKN024 OVC032 11/07 Q1001 -RA 17.3mph 11°C 7°C 11.0°C
07/01/23 08:50 EGLC 070850Z AUTO 17016G28KT 130V200 9999 -RA BKN022 OVC031 11/07 Q1002 -RA 18.4mph 32.2mph 11°C 7°C 11.0°C
07/01/23 08:20 EGLC 070820Z AUTO 17015KT 140V200 9999 BKN025 11/07 Q1002 17.3mph 11°C 7°C 11.0°C
07/01/23 07:50 EGLC 070750Z AUTO 17016G28KT 150V210 9999 SCT027 OVC044 11/07 Q1003 18.4mph 32.2mph 11°C 7°C 11.0°C
07/01/23 07:20 EGLC 070720Z AUTO 17015G26KT 140V210 9999 FEW027 OVC045 11/07 Q1003 17.3mph 29.9mph 11°C 7°C 11.0°C
07/01/23 06:50 EGLC 070650Z AUTO 18013G28KT 140V210 9999 SCT025 BKN046 11/07 Q1004 15.0mph 32.2mph 11°C 7°C 11.0°C
07/01/23 06:20 EGLC 070620Z AUTO 18014G24KT 140V210 9999 BKN024 BKN032 11/07 Q1004 16.1mph 27.6mph 11°C 7°C 11.0°C
07/01/23 05:20 EGLC 070520Z AUTO 18012KT 140V230 9999 BKN022 BKN027 12/07 Q1005 13.8mph 12°C 7°C 12.0°C
07/01/23 04:50 EGLC 070450Z AUTO 19014KT 150V230 9999 SCT022 BKN027 12/07 Q1006 16.1mph 12°C 7°C 12.0°C
07/01/23 04:20 EGLC 070420Z AUTO 19013KT 150V230 9999 BKN021 12/08 Q1006 15.0mph 12°C 8°C 12.4°C
07/01/23 03:50 EGLC 070350Z AUTO 20013G24KT 160V230 9999 BKN020 BKN025 OVC033 12/08 Q1007 15.0mph 27.6mph 12°C 8°C 12.4°C
07/01/23 03:20 EGLC 070320Z AUTO 20013G25KT 160V230 9999 BKN020 OVC038 12/08 Q1007 15.0mph 28.8mph 12°C 8°C 12.4°C
07/01/23 02:50 EGLC 070250Z AUTO 20015G25KT 9999 BKN019 OVC025 13/09 Q1007 17.3mph 28.8mph 13°C 9°C 13.8°C
07/01/23 02:20 EGLC 070220Z AUTO 21015G26KT 170V240 9999 BKN019 BKN025 13/09 Q1008 17.3mph 29.9mph 13°C 9°C 13.8°C